Terminal Aerodrome Forecast
Issued by NWS Tallahassee, FL

Home | Current Version | Previous Version | Text Only | Print | Product List | Glossary On
Versions: 1 2 3 4 5 6 7 8 9 10 11 12 13
946
FTUS42 KTAE 101720
TAFTLH
TAF
KTLH 101720Z 1018/1118 32010G15KT P6SM SKC
     FM102300 28003KT P6SM SKC
     FM111600 20010KT P6SM SKC=

USA.gov is the U.S. government's official web portal to all federal, state and local government web resources and services.